Arab, Missouri
Current Conditions -  °F | °C
As of 9:53 PM on Tuesday 25 Nov 2014 (Local Time) from KPOF Reporting Station
Clear Clear  
Wind Chill: 28°   Ceiling: Unl
Heat Index: 28°   Visibility: 10mi
Dew Point: 24°   Wind: 0mph
Humidity: 85%   Direction: NA
Pressure: 30.18"   Gusts: NA
Location:  37.1241°N, 90.0834°W
Report Text: KPOF 260353Z AUTO 00000KT 10SM CLR M02/M04 A3018 RMK AO2 SLP228 T10221044
Loading
Personal Weather Stations






























Interactive Weather Map New forecast layout! Learn more

10-Day Weather Forecast

Advertisements
Track Severe Weather on mobile